Time;durP1;ratioP1;P1;durP2;ratioP2;P2;SDS_P1;SDS_P2;PMS_P1;PMS_P2;Temp;Humidity;BMP_temperature;BMP_pressure;BME280_temperature;BME280_humidity;BME280_pressure;Samples;Min_cycle;Max_cycle;Signal;HPM_P1;HPM_P2
2022/07/17 00:01:50;;;;;;;;;3.00;3.00;;;;;25.06;32.99;101757.50;5046807;27;45606;-60
2022/07/17 00:04:15;;;;;;;;;7.50;5.50;;;;;24.95;33.58;101764.25;5098355;27;45388;-60
2022/07/17 00:06:41;;;;;;;;;3.75;3.75;;;;;25.03;33.34;101787.00;5080404;27;45344;-57
2022/07/17 00:09:06;;;;;;;;;5.00;5.00;;;;;25.09;33.10;101790.66;5098028;27;46636;-57
2022/07/17 00:11:32;;;;;;;;;6.00;3.25;;;;;25.08;33.35;101791.75;5098219;27;45810;-56
2022/07/17 00:13:57;;;;;;;;;3.25;3.25;;;;;24.94;33.17;101771.88;5098175;27;45446;-56
2022/07/17 00:16:23;;;;;;;;;3.25;3.25;;;;;24.86;33.55;101770.47;5098246;27;45468;-60
2022/07/17 00:18:48;;;;;;;;;4.00;4.00;;;;;24.84;33.42;101780.31;5097961;27;45894;-59
2022/07/17 00:21:14;;;;;;;;;4.00;3.00;;;;;24.90;33.40;101779.16;5079741;27;45306;-55
2022/07/17 00:23:40;;;;;;;;;3.20;3.20;;;;;24.78;33.50;101757.81;5097988;27;45294;-57
2022/07/17 00:26:05;;;;;;;;;4.00;3.00;;;;;24.84;33.46;101763.47;5098465;27;45619;-59
2022/07/17 00:28:31;;;;;;;;;6.25;5.00;;;;;24.99;33.94;101788.72;5062752;27;47407;-60
2022/07/17 00:30:56;;;;;;;;;4.00;3.00;;;;;24.87;33.55;101765.72;5098329;27;45443;-61
2022/07/17 00:33:22;;;;;;;;;2.75;2.75;;;;;24.97;33.40;101790.94;5098246;27;46006;-55
2022/07/17 00:35:47;;;;;;;;;4.25;4.25;;;;;24.89;33.99;101783.09;5097937;27;45358;-60
2022/07/17 00:38:13;;;;;;;;;5.00;4.25;;;;;24.92;33.92;101779.75;5079859;27;46442;-57
2022/07/17 00:40:39;;;;;;;;;4.80;4.80;;;;;24.94;33.82;101788.72;5098049;27;45434;-58
2022/07/17 00:43:04;;;;;;;;;4.75;4.75;;;;;24.85;33.96;101771.59;5079731;27;45427;-58
2022/07/17 00:45:30;;;;;;;;;6.00;6.00;;;;;24.82;34.12;101776.94;5098117;27;45427;-56
2022/07/17 00:48:03;;;;;;;;;8.75;8.00;;;;;24.76;34.19;101779.72;5097701;27;45436;-54
2022/07/17 00:50:34;;;;;;;;;14.60;10.60;;;;;24.77;34.14;101781.41;5097737;27;45351;-57
2022/07/17 00:53:00;;;;;;;;;3.40;3.40;;;;;24.57;34.32;101753.38;5080346;27;45368;-55
2022/07/17 00:55:25;;;;;;;;;6.00;6.00;;;;;24.68;33.69;101776.66;5079596;27;45378;-58
2022/07/17 00:57:54;;;;;;;;;3.50;3.50;;;;;24.68;34.32;101779.47;5061437;27;45854;-60
2022/07/17 01:00:19;;;;;;;;;6.80;5.60;;;;;24.61;34.07;101789.00;5062866;27;45417;-57
2022/07/17 01:02:47;;;;;;;;;4.00;4.00;;;;;24.66;34.39;101784.53;5097780;27;45398;-60
2022/07/17 01:05:12;;;;;;;;;5.80;5.80;;;;;24.69;34.09;101790.41;5079853;27;45932;-60
2022/07/17 01:07:38;;;;;;;;;4.00;4.00;;;;;24.71;34.30;101785.34;5097761;27;46742;-58
2022/07/17 01:10:03;;;;;;;;;5.00;5.00;;;;;24.64;34.18;101793.22;5097146;27;45388;-60
2022/07/17 01:12:29;;;;;;;;;9.00;7.50;;;;;24.60;34.29;101792.94;5061967;27;45410;-55
2022/07/17 01:14:55;;;;;;;;;3.75;3.75;;;;;24.55;33.94;101792.13;5062000;27;45511;-56
2022/07/17 01:17:20;;;;;;;;;4.00;4.00;;;;;24.49;34.35;101789.31;5078711;27;45604;-56
2022/07/17 01:19:46;;;;;;;;;4.50;4.50;;;;;24.25;34.16;101760.13;5097168;27;45440;-59
2022/07/17 01:22:11;;;;;;;;;2.75;2.75;;;;;24.31;34.63;101778.66;5096553;27;45376;-59
2022/07/17 01:24:40;;;;;;;;;3.25;3.00;;;;;24.34;34.86;101784.53;5079401;27;45318;-58
2022/07/17 01:27:06;;;;;;;;;4.00;4.00;;;;;24.31;34.74;101778.66;5097224;27;46680;-59
2022/07/17 01:29:32;;;;;;;;;4.00;4.00;;;;;24.27;34.88;101781.16;5061933;27;45454;-57
2022/07/17 01:31:57;;;;;;;;;8.00;5.00;;;;;24.23;34.69;101774.47;5097731;27;45373;-55
2022/07/17 01:34:22;;;;;;;;;7.00;5.75;;;;;24.35;34.91;101785.38;5078921;27;45467;-53
2022/07/17 01:36:48;;;;;;;;;3.75;3.75;;;;;24.07;34.85;101752.00;5096932;27;45509;-58
2022/07/17 01:39:13;;;;;;;;;5.50;4.00;;;;;24.20;34.56;101763.78;5096853;27;45283;-51
2022/07/17 01:41:39;;;;;;;;;5.50;4.50;;;;;24.29;34.48;101764.06;5097391;27;45287;-59
2022/07/17 01:44:06;;;;;;;;;6.00;4.75;;;;;24.45;34.44;101774.16;5079126;27;45397;-59
2022/07/17 01:46:31;;;;;;;;;5.00;5.00;;;;;24.22;34.66;101745.56;5078502;27;45763;-53
2022/07/17 01:48:57;;;;;;;;;4.50;4.25;;;;;24.38;34.86;101767.97;5078782;27;45514;-57
2022/07/17 01:51:22;;;;;;;;;4.25;4.25;;;;;24.41;34.42;101773.03;5097006;27;45479;-54
2022/07/17 01:53:48;;;;;;;;;5.00;4.00;;;;;24.38;34.38;101765.19;5078745;27;45336;-60
2022/07/17 01:56:13;;;;;;;;;5.00;5.00;;;;;24.33;34.49;101768.00;5066099;27;46674;-59
2022/07/17 01:58:38;;;;;;;;;3.00;3.00;;;;;24.32;34.50;101774.72;5094168;27;45486;-55
2022/07/17 02:01:04;;;;;;;;;4.75;4.00;;;;;24.34;34.44;101772.50;5096310;27;45438;-57
2022/07/17 02:03:29;;;;;;;;;5.25;5.25;;;;;24.24;34.44;101764.91;5078678;27;45523;-56
2022/07/17 02:05:55;;;;;;;;;3.25;3.25;;;;;24.23;34.92;101764.06;5078435;27;45573;-59
2022/07/17 02:08:20;;;;;;;;;5.00;2.50;;;;;24.12;34.63;101762.38;5096545;27;45322;-60
2022/07/17 02:10:46;;;;;;;;;5.00;5.00;;;;;24.05;34.96;101767.38;5096679;27;45368;-58
2022/07/17 02:13:11;;;;;;;;;4.75;4.25;;;;;24.07;34.81;101768.00;5078401;27;45780;-55
2022/07/17 02:15:37;;;;;;;;;4.75;4.75;;;;;23.94;34.98;101756.19;5096468;27;45591;-53
2022/07/17 02:18:02;;;;;;;;;6.75;4.50;;;;;24.02;34.89;101762.34;5096541;27;45339;-58
2022/07/17 02:20:28;;;;;;;;;8.75;5.00;;;;;23.85;35.08;101721.38;5077967;27;45357;-59
2022/07/17 02:22:53;;;;;;;;;3.25;3.25;;;;;23.91;35.35;101753.09;5096422;27;45344;-55
2022/07/17 02:25:19;;;;;;;;;4.00;4.00;;;;;23.92;34.85;101743.56;5096115;27;46219;-51
2022/07/17 02:27:44;;;;;;;;;5.00;4.50;;;;;23.89;34.99;101738.50;5096162;27;45769;-53
2022/07/17 02:30:17;;;;;;;;;8.00;6.50;;;;;23.98;34.78;101764.00;5096230;27;45385;-58
2022/07/17 02:32:42;;;;;;;;;3.40;2.80;;;;;23.93;34.96;101759.25;5078312;27;45264;-59
2022/07/17 02:35:08;;;;;;;;;4.75;4.75;;;;;23.88;34.98;101762.91;5077478;27;45760;-58
2022/07/17 02:37:34;;;;;;;;;11.60;8.40;;;;;23.90;35.14;101760.66;5095738;27;45598;-58
2022/07/17 02:39:59;;;;;;;;;10.50;10.50;;;;;23.89;34.76;101744.94;5096127;27;45377;-56
2022/07/17 02:42:26;;;;;;;;;11.00;9.75;;;;;24.00;34.65;101754.22;5077901;27;45340;-56
2022/07/17 02:44:52;;;;;;;;;11.60;9.80;;;;;23.80;34.85;101724.22;5095436;27;46568;-56
2022/07/17 02:47:24;;;;;;;;;10.00;9.00;;;;;23.82;34.57;101730.38;5077513;27;45501;-55
2022/07/17 02:49:50;;;;;;;;;10.40;8.80;;;;;24.01;34.54;101755.88;5095630;27;45408;-56
2022/07/17 02:52:16;;;;;;;;;10.00;8.00;;;;;24.00;35.09;101750.59;5096165;27;45406;-58
2022/07/17 02:54:41;;;;;;;;;8.75;7.00;;;;;23.93;35.11;101746.09;5096249;27;46079;-56
2022/07/17 02:57:06;;;;;;;;;7.75;7.75;;;;;23.83;34.77;101737.66;5095771;27;45210;-56
2022/07/17 02:59:32;;;;;;;;;7.50;5.00;;;;;23.82;35.42;101748.03;5095603;27;45282;-59
2022/07/17 03:01:58;;;;;;;;;4.75;4.75;;;;;23.82;34.92;101733.16;5095902;27;45353;-56
2022/07/17 03:04:23;;;;;;;;;6.50;5.25;;;;;23.84;34.94;101747.75;5095873;27;46878;-60
2022/07/17 03:06:48;;;;;;;;;5.00;5.00;;;;;23.84;34.77;101742.13;5060307;27;45389;-57
2022/07/17 03:09:14;;;;;;;;;2.25;2.25;;;;;23.83;35.00;101744.13;5095771;27;45467;-61
2022/07/17 03:11:39;;;;;;;;;4.00;4.00;;;;;23.72;35.22;101720.00;5077475;27;45457;-57
2022/07/17 03:14:05;;;;;;;;;5.25;4.00;;;;;23.60;35.24;101717.44;5077077;27;46453;-60
2022/07/17 03:16:30;;;;;;;;;5.00;4.00;;;;;23.37;35.53;101683.22;5095630;27;45309;-55
2022/07/17 03:18:56;;;;;;;;;3.50;3.25;;;;;23.68;35.50;101747.72;5095447;27;45474;-54
2022/07/17 03:21:21;;;;;;;;;6.00;3.25;;;;;23.69;35.58;101754.16;5097256;27;45421;-61
2022/07/17 03:23:47;;;;;;;;;4.00;2.25;;;;;23.66;35.27;101740.72;5098680;27;46570;-58
2022/07/17 03:26:12;;;;;;;;;1.00;1.00;;;;;23.61;35.58;101747.16;5098968;27;45265;-56
2022/07/17 03:28:38;;;;;;;;;3.00;3.00;;;;;23.58;36.02;101744.88;5099577;27;45288;-58
2022/07/17 03:31:03;;;;;;;;;3.00;3.00;;;;;23.39;35.44;101723.00;5080821;27;45364;-58
2022/07/17 03:33:28;;;;;;;;;3.00;3.00;;;;;23.56;35.47;101752.72;5099160;27;45438;-59
2022/07/17 03:35:54;;;;;;;;;5.75;5.75;;;;;23.60;35.56;101753.88;5098635;27;45296;-62
2022/07/17 03:38:20;;;;;;;;;2.25;2.00;;;;;23.62;35.31;101754.44;5099135;27;45393;-55
2022/07/17 03:40:45;;;;;;;;;4.00;4.00;;;;;23.65;35.65;101759.47;5080880;27;45366;-57
2022/07/17 03:43:12;;;;;;;;;4.00;4.00;;;;;23.70;35.37;101758.66;5080602;27;45372;-57
2022/07/17 03:45:37;;;;;;;;;3.00;3.00;;;;;23.57;35.65;101771.22;5099184;27;45368;-54
2022/07/17 03:48:03;;;;;;;;;3.25;3.25;;;;;23.49;35.69;101766.16;5098858;27;45431;-61
2022/07/17 03:50:28;;;;;;;;;4.50;4.50;;;;;23.41;35.84;101759.97;5098944;27;45503;-61
2022/07/17 03:52:54;;;;;;;;;4.00;4.00;;;;;23.47;35.96;101766.44;5098804;27;46364;-60
2022/07/17 03:55:19;;;;;;;;;3.25;2.00;;;;;23.48;35.66;101758.88;5098583;27;45408;-58
2022/07/17 03:57:45;;;;;;;;;4.00;3.00;;;;;23.58;35.54;101769.28;5099100;27;45435;-59
2022/07/17 04:00:10;;;;;;;;;3.00;2.75;;;;;23.59;35.58;101769.00;5098872;27;45423;-56
2022/07/17 04:02:36;;;;;;;;;2.75;2.75;;;;;23.25;35.69;101741.38;5098304;27;45442;-59
2022/07/17 04:05:01;;;;;;;;;3.00;3.00;;;;;23.26;35.99;101743.09;5098350;27;45469;-61
2022/07/17 04:07:27;;;;;;;;;4.00;2.50;;;;;23.21;35.95;101734.66;5098579;27;45407;-57
2022/07/17 04:09:57;;;;;;;;;2.75;2.75;;;;;23.38;35.77;101757.72;5099052;27;45316;-59
2022/07/17 04:12:23;;;;;;;;;2.00;2.00;;;;;23.35;36.10;101751.81;5080142;27;47008;-60
2022/07/17 04:14:49;;;;;;;;;6.00;4.00;;;;;23.36;36.32;101754.34;5079954;27;45465;-59
2022/07/17 04:17:14;;;;;;;;;3.00;3.00;;;;;23.33;36.07;101763.31;5098405;27;45401;-56
2022/07/17 04:19:40;;;;;;;;;4.00;4.00;;;;;23.10;36.59;101748.63;5080370;27;45393;-58
2022/07/17 04:22:05;;;;;;;;;2.00;2.00;;;;;23.26;36.43;101776.69;5098338;27;46380;-57
2022/07/17 04:24:31;;;;;;;;;3.50;3.00;;;;;23.31;36.33;101785.13;5097841;27;45391;-57
2022/07/17 04:26:56;;;;;;;;;2.25;2.25;;;;;23.29;36.38;101793.78;5098038;27;45448;-59
2022/07/17 04:29:22;;;;;;;;;4.75;3.00;;;;;23.18;36.34;101780.00;5098349;27;45836;-60
2022/07/17 04:31:47;;;;;;;;;2.00;2.00;;;;;23.29;36.08;101805.00;5097594;27;46404;-57
2022/07/17 04:34:12;;;;;;;;;5.25;4.00;;;;;23.18;36.73;101792.06;5097707;27;45418;-54
2022/07/17 04:36:38;;;;;;;;;2.00;2.00;;;;;23.18;36.83;101803.25;5097805;27;45310;-58
2022/07/17 04:39:03;;;;;;;;;2.00;2.00;;;;;23.01;36.85;101803.44;5098015;27;45528;-61
2022/07/17 04:41:29;;;;;;;;;5.00;4.00;;;;;22.99;37.03;101805.66;5097279;27;45510;-56
2022/07/17 04:43:54;;;;;;;;;2.00;2.00;;;;;23.00;37.12;101807.38;5097878;27;45245;-58
2022/07/17 04:46:20;;;;;;;;;2.75;2.75;;;;;23.05;37.04;101810.16;5097695;27;45332;-53
2022/07/17 04:48:45;;;;;;;;;2.25;2.25;;;;;22.80;37.07;101792.13;5098004;27;45765;-60
2022/07/17 04:51:11;;;;;;;;;3.25;3.25;;;;;22.91;37.26;101818.22;5097132;27;46111;-59
2022/07/17 04:53:37;;;;;;;;;4.75;4.75;;;;;23.04;37.21;101818.88;5097469;27;45397;-62
2022/07/17 04:56:03;;;;;;;;;3.40;3.40;;;;;23.12;36.86;101810.75;5079574;27;45413;-60
2022/07/17 04:58:28;;;;;;;;;3.00;3.00;;;;;23.09;36.64;101799.28;5097559;27;45416;-61
2022/07/17 05:00:54;;;;;;;;;3.75;3.75;;;;;23.05;36.54;101792.53;5078928;27;46821;-58
2022/07/17 05:03:19;;;;;;;;;2.50;2.50;;;;;23.23;36.69;101824.84;5097223;27;45495;-56
2022/07/17 05:05:45;;;;;;;;;3.25;3.25;;;;;22.74;36.48;101743.66;5097604;27;45855;-58
2022/07/17 05:08:10;;;;;;;;;5.00;4.00;;;;;23.21;36.70;101824.28;5097610;27;45360;-60
2022/07/17 05:10:36;;;;;;;;;3.00;3.00;;;;;23.08;37.05;101820.84;5097290;27;45884;-60
2022/07/17 05:13:01;;;;;;;;;5.50;5.50;;;;;23.17;36.84;101818.38;5079226;27;45461;-59
2022/07/17 05:15:27;;;;;;;;;7.00;7.00;;;;;23.00;36.89;101801.75;5078683;27;45506;-57
2022/07/17 05:17:52;;;;;;;;;4.00;4.00;;;;;23.13;37.01;101826.47;5078989;27;45306;-60
2022/07/17 05:20:17;;;;;;;;;8.00;7.00;;;;;23.21;36.54;101829.88;5065976;27;46095;-59
2022/07/17 05:22:43;;;;;;;;;7.75;7.25;;;;;23.14;36.62;101811.34;5075214;28;45364;-59
2022/07/17 05:25:09;;;;;;;;;6.25;6.25;;;;;23.31;36.66;101832.75;5076483;28;45348;-58
2022/07/17 05:27:34;;;;;;;;;9.50;8.25;;;;;23.14;37.12;101830.97;5075468;28;45577;-53
2022/07/17 05:29:59;;;;;;;;;7.50;7.50;;;;;23.10;37.13;101835.41;5076775;28;45854;-61
2022/07/17 05:32:25;;;;;;;;;8.00;8.00;;;;;22.94;37.08;101831.66;5076298;28;45245;-60
2022/07/17 05:34:50;;;;;;;;;7.75;6.50;;;;;23.07;37.15;101837.91;5076315;28;45230;-60
2022/07/17 05:37:16;;;;;;;;;6.00;5.00;;;;;23.04;37.34;101836.47;5076655;28;45397;-59
2022/07/17 05:39:41;;;;;;;;;5.00;5.00;;;;;23.13;37.39;101834.88;5076276;28;46722;-56
2022/07/17 05:42:07;;;;;;;;;5.50;5.50;;;;;23.21;37.11;101835.47;5070086;27;45326;-60
2022/07/17 05:44:32;;;;;;;;;5.25;5.25;;;;;23.23;37.15;101834.09;5062928;27;45345;-62
2022/07/17 05:46:58;;;;;;;;;3.50;3.50;;;;;23.17;37.02;101837.97;5096519;27;45522;-60
2022/07/17 05:49:23;;;;;;;;;6.00;6.00;;;;;23.14;37.40;101846.91;5096610;27;46761;-57
2022/07/17 05:51:48;;;;;;;;;4.00;4.00;;;;;23.09;36.90;101838.47;5096254;27;45407;-53
2022/07/17 05:54:14;;;;;;;;;4.00;4.00;;;;;23.12;37.01;101830.38;5078236;27;45447;-60
2022/07/17 05:56:39;;;;;;;;;4.25;4.25;;;;;23.08;37.24;101818.03;5096975;27;45594;-61
2022/07/17 05:59:05;;;;;;;;;4.00;4.00;;;;;23.13;37.27;101832.06;5096138;27;45423;-61
2022/07/17 06:01:30;;;;;;;;;3.75;2.50;;;;;22.95;37.41;101804.53;5096434;27;45302;-57
2022/07/17 06:03:56;;;;;;;;;4.00;3.00;;;;;23.14;37.39;101844.97;5078517;27;45403;-54
2022/07/17 06:06:21;;;;;;;;;3.25;3.25;;;;;23.08;37.58;101843.22;5096673;27;45562;-58
2022/07/17 06:08:47;;;;;;;;;4.00;4.00;;;;;23.14;37.55;101849.69;5096175;27;45539;-58
2022/07/17 06:11:12;;;;;;;;;4.00;4.00;;;;;23.10;37.48;101843.81;5096130;27;45435;-61
2022/07/17 06:13:38;;;;;;;;;4.00;4.00;;;;;23.17;37.22;101839.91;5078350;27;45428;-59
2022/07/17 06:16:03;;;;;;;;;4.50;3.50;;;;;23.15;37.47;101842.97;5096691;27;45570;-53
2022/07/17 06:18:29;;;;;;;;;3.75;3.00;;;;;23.14;37.51;101842.16;5077530;27;47050;-58
2022/07/17 06:20:54;;;;;;;;;4.75;4.75;;;;;23.22;37.14;101845.56;5077906;27;45521;-58
2022/07/17 06:23:20;;;;;;;;;3.75;3.75;;;;;23.01;36.72;101803.44;5096060;27;45381;-59
2022/07/17 06:25:45;;;;;;;;;2.50;2.50;;;;;23.35;37.15;101844.25;5078669;27;45365;-59
2022/07/17 06:28:11;;;;;;;;;6.50;5.00;;;;;23.36;36.93;101843.97;5096143;27;45632;-57
2022/07/17 06:30:37;;;;;;;;;5.25;4.25;;;;;23.24;36.71;101823.72;5078414;27;45279;-56
2022/07/17 06:33:02;;;;;;;;;4.25;4.25;;;;;23.46;36.61;101854.38;5078363;27;45473;-58
2022/07/17 06:35:30;;;;;;;;;3.60;2.40;;;;;23.34;36.93;101829.41;5078103;27;45638;-60
2022/07/17 06:37:56;;;;;;;;;5.20;5.20;;;;;23.46;36.89;101837.59;5095687;27;45682;-57
2022/07/17 06:40:22;;;;;;;;;5.40;4.00;;;;;23.37;36.89;101840.06;5095261;27;45326;-56
2022/07/17 06:42:47;;;;;;;;;8.25;5.00;;;;;23.42;37.03;101840.09;5073352;27;45991;-57
2022/07/17 06:45:13;;;;;;;;;4.00;4.00;;;;;23.49;37.05;101844.59;5097840;27;45431;-58
2022/07/17 06:47:38;;;;;;;;;3.00;2.50;;;;;23.41;36.68;101841.22;5077566;27;46761;-58
2022/07/17 06:50:04;;;;;;;;;3.75;3.00;;;;;23.51;36.49;101845.16;5096004;27;45383;-54
2022/07/17 06:52:30;;;;;;;;;4.60;3.40;;;;;23.33;36.39;101805.31;5095726;27;45306;-56
2022/07/17 06:54:55;;;;;;;;;5.00;4.00;;;;;23.50;36.76;101823.88;5096303;27;45307;-57
2022/07/17 06:57:21;;;;;;;;;3.00;3.00;;;;;23.38;36.65;101802.53;5098860;27;45393;-54
2022/07/17 06:59:46;;;;;;;;;4.00;3.00;;;;;23.56;36.52;101831.19;5081291;27;45278;-58
2022/07/17 07:02:12;;;;;;;;;3.25;3.25;;;;;23.58;36.61;101820.53;5099608;27;45234;-55
2022/07/17 07:04:37;;;;;;;;;6.75;4.00;;;;;23.77;36.13;101836.84;5081777;27;45152;-52
2022/07/17 07:07:03;;;;;;;;;3.00;3.00;;;;;23.72;36.26;101811.59;5064354;27;45428;-55
2022/07/17 07:09:28;;;;;;;;;4.50;4.50;;;;;23.81;35.74;101804.38;5081192;27;45467;-54
2022/07/17 07:11:54;;;;;;;;;4.25;4.25;;;;;24.01;35.71;101833.56;5099725;27;45403;-56
2022/07/17 07:14:19;;;;;;;;;4.50;3.75;;;;;23.98;35.12;101831.31;5099730;27;45325;-57
2022/07/17 07:16:46;;;;;;;;;3.00;3.00;;;;;24.03;35.16;101839.72;5099361;27;45574;-55
2022/07/17 07:19:11;;;;;;;;;3.20;2.80;;;;;23.99;35.23;101841.38;5099063;27;45420;-57
2022/07/17 07:21:37;;;;;;;;;3.50;3.00;;;;;24.05;35.27;101843.94;5099529;27;45522;-53
2022/07/17 07:24:03;;;;;;;;;3.00;3.00;;;;;24.14;35.08;101840.63;5099402;27;45369;-54
2022/07/17 07:26:29;;;;;;;;;3.00;3.00;;;;;24.18;35.20;101839.78;5083841;27;46532;-60
2022/07/17 07:28:55;;;;;;;;;2.25;1.25;;;;;24.14;34.74;101816.22;5078121;27;45494;-53
2022/07/17 07:31:20;;;;;;;;;3.00;3.00;;;;;24.37;34.97;101842.03;5081563;27;45350;-59
2022/07/17 07:33:46;;;;;;;;;2.25;2.25;;;;;24.37;34.76;101844.84;5063435;27;45334;-55
2022/07/17 07:36:11;;;;;;;;;2.00;2.00;;;;;24.32;34.92;101833.63;5098549;27;46201;-58
2022/07/17 07:38:37;;;;;;;;;2.75;2.75;;;;;24.36;34.87;101844.03;5080111;27;45279;-60
2022/07/17 07:41:03;;;;;;;;;3.00;3.00;;;;;24.53;34.66;101830.84;5098057;27;45360;-53
2022/07/17 07:43:29;;;;;;;;;3.20;2.20;;;;;24.58;34.42;101830.81;5100786;27;45497;-60
2022/07/17 07:45:54;;;;;;;;;3.00;3.00;;;;;24.44;34.67;101825.78;5099956;27;45598;-60
2022/07/17 07:48:20;;;;;;;;;3.00;3.00;;;;;24.57;34.71;101826.34;5086228;27;45356;-55
2022/07/17 07:50:45;;;;;;;;;3.00;3.00;;;;;24.65;34.82;101825.75;5061539;27;45457;-61
2022/07/17 07:53:10;;;;;;;;;3.00;3.00;;;;;24.78;34.00;101828.00;5097786;27;45444;-55
2022/07/17 07:55:36;;;;;;;;;7.50;7.50;;;;;24.73;34.29;101825.22;5114910;27;47652;-58
2022/07/17 07:58:06;;;;;;;;;2.50;2.50;;;;;24.79;34.16;101831.66;5079857;27;45469;-55
2022/07/17 08:00:31;;;;;;;;;3.00;3.00;;;;;24.95;35.03;101835.31;5098208;27;45279;-53
2022/07/17 08:02:57;;;;;;;;;5.50;5.00;;;;;24.89;33.91;101811.19;5098467;27;45544;-58
2022/07/17 08:05:22;;;;;;;;;3.00;3.00;;;;;25.12;33.98;101836.94;5079021;27;45850;-59
2022/07/17 08:07:48;;;;;;;;;4.00;3.00;;;;;25.18;34.00;101833.84;5118050;27;45315;-56
2022/07/17 08:10:13;;;;;;;;;3.00;3.00;;;;;25.21;33.51;101828.78;5118617;27;45247;-57
2022/07/17 08:12:39;;;;;;;;;2.50;2.50;;;;;25.16;33.85;101827.69;5118868;27;45502;-54
2022/07/17 08:15:05;;;;;;;;;3.25;3.25;;;;;25.21;33.58;101828.78;5118310;27;46373;-60
2022/07/17 08:17:30;;;;;;;;;5.00;5.00;;;;;25.27;32.68;101830.44;5098485;27;45447;-59
2022/07/17 08:19:56;;;;;;;;;2.75;2.75;;;;;25.30;33.00;101835.50;5083578;27;45464;-56
2022/07/17 08:22:21;;;;;;;;;3.00;3.00;;;;;25.37;33.56;101832.38;5098444;27;45238;-58
2022/07/17 08:24:47;;;;;;;;;3.00;3.00;;;;;25.38;33.45;101834.06;5075762;28;48498;-56
2022/07/17 08:27:12;;;;;;;;;4.00;4.00;;;;;25.46;33.26;101830.69;5054857;27;45389;-60
2022/07/17 08:29:38;;;;;;;;;4.00;4.00;;;;;25.57;33.27;101842.75;5075401;28;45412;-56
2022/07/17 08:32:03;;;;;;;;;3.00;3.00;;;;;25.52;32.37;101812.69;5057055;27;46089;-58
2022/07/17 08:34:29;;;;;;;;;2.25;2.25;;;;;25.49;32.67;101810.41;5056927;28;45888;-59
2022/07/17 08:36:54;;;;;;;;;3.50;3.50;;;;;25.71;32.69;101823.25;5055828;28;45410;-60
2022/07/17 08:39:20;;;;;;;;;2.75;2.75;;;;;25.75;33.23;101827.19;5057251;28;45347;-58
2022/07/17 08:41:46;;;;;;;;;4.50;3.25;;;;;25.81;32.45;101833.63;5054214;28;45481;-60
2022/07/17 08:44:11;;;;;;;;;5.00;3.75;;;;;25.82;32.35;101819.28;5055664;28;46971;-58
2022/07/17 08:46:38;;;;;;;;;5.75;2.75;;;;;25.86;32.45;101825.16;5057381;28;45454;-58
2022/07/17 08:49:04;;;;;;;;;3.20;3.20;;;;;25.90;32.54;101819.78;5056823;28;45558;-60
2022/07/17 08:51:30;;;;;;;;;3.00;3.00;;;;;25.93;31.71;101822.03;5076976;28;45544;-58
2022/07/17 08:53:56;;;;;;;;;3.75;3.75;;;;;25.95;31.60;101820.63;5057718;28;45530;-56
2022/07/17 08:56:21;;;;;;;;;4.50;3.00;;;;;26.03;31.71;101824.75;5075515;28;45528;-58
2022/07/17 08:58:47;;;;;;;;;2.50;2.50;;;;;26.09;31.66;101817.16;5059077;28;45400;-56
2022/07/17 09:01:13;;;;;;;;;3.25;2.25;;;;;26.11;31.38;101804.44;5072425;28;45685;-55
2022/07/17 09:03:41;;;;;;;;;3.00;3.00;;;;;26.29;31.31;101826.59;5019143;28;45323;-53
2022/07/17 09:06:16;;;;;;;;;4.80;3.40;;;;;26.32;31.30;101829.66;5019275;28;45292;-51
2022/07/17 09:08:42;;;;;;;;;3.40;3.40;;;;;26.39;31.41;101824.53;5036004;28;45346;-55
2022/07/17 09:11:08;;;;;;;;;4.00;4.00;;;;;26.47;31.30;101820.25;5037154;28;45817;-53
2022/07/17 09:13:33;;;;;;;;;3.50;3.50;;;;;26.53;31.31;101821.06;5036522;28;46321;-57
2022/07/17 09:16:05;;;;;;;;;4.00;4.00;;;;;26.51;30.70;101823.31;5036287;28;45542;-54
2022/07/17 09:18:30;;;;;;;;;3.60;3.00;;;;;26.52;30.29;101827.81;5039194;28;45980;-52
2022/07/17 09:20:56;;;;;;;;;4.00;2.75;;;;;26.45;30.50;101804.78;5077268;27;45691;-54
2022/07/17 09:23:23;;;;;;;;;2.60;2.60;;;;;26.61;30.70;101819.56;5080860;27;46623;-54
2022/07/17 09:25:51;;;;;;;;;3.40;2.00;;;;;26.56;30.56;101794.28;5061753;27;45338;-54
2022/07/17 09:28:16;;;;;;;;;2.00;2.00;;;;;26.70;30.28;101800.06;5096891;27;45466;-52
2022/07/17 09:30:45;;;;;;;;;5.00;4.00;;;;;26.87;30.49;101814.53;5097231;27;45354;-57
2022/07/17 09:33:18;;;;;;;;;2.60;2.60;;;;;26.91;30.25;101818.47;5096474;27;45769;-51
2022/07/17 09:35:48;;;;;;;;;2.40;2.40;;;;;26.92;29.53;101811.69;5096606;27;45344;-53
2022/07/17 09:38:28;;;;;;;;;2.40;2.40;;;;;26.98;29.34;101815.28;5078893;27;45334;-54
2022/07/17 09:41:15;;;;;;;;;3.40;3.40;;;;;27.06;29.47;101825.06;5079440;27;45423;-47
2022/07/17 09:43:59;;;;;;;;;5.00;4.00;;;;;26.99;28.89;101810.50;5060320;28;46522;-56
2022/07/17 09:46:31;;;;;;;;;3.20;3.20;;;;;27.09;28.99;101821.63;5082404;27;45394;-55
2022/07/17 09:49:04;;;;;;;;;3.00;3.00;;;;;27.07;28.59;101821.13;5075124;28;45459;-53
2022/07/17 09:51:39;;;;;;;;;3.00;3.00;;;;;27.07;28.07;101818.28;5058554;28;45492;-51
2022/07/17 09:54:05;;;;;;;;;4.00;3.60;;;;;27.08;28.23;101819.13;5037360;28;46322;-52
2022/07/17 09:56:32;;;;;;;;;2.40;2.40;;;;;27.08;28.36;101821.94;5035679;28;45558;-54
2022/07/17 09:59:09;;;;;;;;;2.20;2.20;;;;;27.12;28.43;101817.38;5054676;28;45901;-51
2022/07/17 10:01:34;;;;;;;;;3.00;3.00;;;;;27.02;28.01;101787.34;5056202;28;45430;-50
2022/07/17 10:04:00;;;;;;;;;2.00;2.00;;;;;26.96;28.14;101794.19;5055782;28;46402;-51
2022/07/17 10:06:26;;;;;;;;;4.75;4.75;;;;;26.99;28.17;101797.25;5037556;28;45240;-49
2022/07/17 10:08:52;;;;;;;;;2.60;2.60;;;;;27.19;28.27;101823.50;5055637;28;45405;-52
2022/07/17 10:11:20;;;;;;;;;4.40;3.40;;;;;27.27;28.89;101822.84;5038222;28;45695;-54
2022/07/17 10:13:46;;;;;;;;;2.00;2.00;;;;;27.18;28.29;101794.50;5020364;28;46615;-50
2022/07/17 10:16:13;;;;;;;;;5.00;3.00;;;;;27.23;28.31;101793.59;5055550;28;45377;-55
2022/07/17 10:18:42;;;;;;;;;2.60;2.60;;;;;27.44;28.01;101807.44;5041039;27;45459;-52
2022/07/17 10:21:13;;;;;;;;;3.60;3.60;;;;;27.62;27.76;101824.72;5096663;27;45683;-55
2022/07/17 10:23:39;;;;;;;;;2.80;2.20;;;;;27.63;27.50;101815.94;5095782;27;47024;-53
2022/07/17 10:26:04;;;;;;;;;2.00;2.00;;;;;27.73;27.26;101827.09;5011839;28;45339;-50
2022/07/17 10:28:46;;;;;;;;;2.00;2.00;;;;;27.78;27.30;101834.63;5057430;28;45282;-56
2022/07/17 10:31:28;;;;;;;;;3.00;3.00;;;;;27.85;27.06;101823.81;5061010;28;45406;-52
2022/07/17 10:34:04;;;;;;;;;1.60;1.60;;;;;27.94;26.78;101826.78;5043920;28;48284;-58
2022/07/17 10:36:42;;;;;;;;;3.00;3.00;;;;;27.96;26.72;101824.47;5079356;28;45366;-55
2022/07/17 10:39:20;;;;;;;;;3.20;3.20;;;;;28.03;26.66;101835.41;5079200;27;45432;-57
2022/07/17 10:41:56;;;;;;;;;2.80;2.80;;;;;28.02;26.37;101811.16;5061531;28;45862;-53
2022/07/17 10:44:26;;;;;;;;;3.00;3.00;;;;;28.07;26.74;101813.06;5061440;28;45478;-58
2022/07/17 10:46:52;;;;;;;;;3.20;3.00;;;;;28.26;25.94;101830.00;5044522;28;45860;-55
2022/07/17 10:49:18;;;;;;;;;5.00;4.00;;;;;28.32;26.80;101834.41;5061037;28;45385;-58
2022/07/17 10:51:43;;;;;;;;;4.00;4.00;;;;;28.30;26.19;101816.94;5044239;28;45573;-53
2022/07/17 10:54:09;;;;;;;;;3.50;3.00;;;;;28.37;26.88;101813.72;5043728;28;45856;-59
2022/07/17 10:56:35;;;;;;;;;2.75;2.75;;;;;28.46;25.82;101828.81;5060740;28;45318;-53
2022/07/17 10:59:01;;;;;;;;;5.00;4.00;;;;;28.47;25.61;101829.63;5078969;28;45420;-59
2022/07/17 11:01:27;;;;;;;;;3.00;3.00;;;;;28.39;25.40;101805.81;5044434;28;45378;-57
2022/07/17 11:03:57;;;;;;;;;3.50;3.50;;;;;28.35;25.58;101802.75;5043926;28;45382;-53
2022/07/17 11:06:30;;;;;;;;;4.00;4.00;;;;;28.47;25.15;101819.19;5060723;28;45351;-59
2022/07/17 11:09:02;;;;;;;;;4.40;4.00;;;;;28.55;25.30;101821.31;5060723;28;45401;-54
2022/07/17 11:11:44;;;;;;;;;5.00;4.60;;;;;28.58;25.66;101819.84;5079069;28;45353;-56
2022/07/17 11:14:31;;;;;;;;;2.80;2.80;;;;;28.59;25.06;101812.25;5043886;28;45387;-55
2022/07/17 11:16:57;;;;;;;;;2.60;2.60;;;;;28.62;24.20;101818.09;5078656;28;45855;-59
2022/07/17 11:19:38;;;;;;;;;3.00;3.00;;;;;28.62;24.21;101820.94;5085831;27;45832;-57
2022/07/17 11:22:05;;;;;;;;;2.20;2.20;;;;;28.67;23.98;101822.81;5081317;27;45629;-51